sensor_id;sensor_type;location;lat;lon;timestamp;temperature;humidity
3308;DHT22;1666;48.898;9.182;2023-07-30T00:00:41;17.70;73.60
3308;DHT22;1666;48.898;9.182;2023-07-30T00:03:11;17.70;78.30
3308;DHT22;1666;48.898;9.182;2023-07-30T00:05:51;17.70;71.40
3308;DHT22;1666;48.898;9.182;2023-07-30T00:08:22;17.60;70.70
3308;DHT22;1666;48.898;9.182;2023-07-30T00:10:52;17.60;73.10
3308;DHT22;1666;48.898;9.182;2023-07-30T00:13:22;17.60;76.40
3308;DHT22;1666;48.898;9.182;2023-07-30T00:15:52;17.50;72.60
3308;DHT22;1666;48.898;9.182;2023-07-30T00:18:22;17.50;74.70
3308;DHT22;1666;48.898;9.182;2023-07-30T00:20:54;17.50;75.00
3308;DHT22;1666;48.898;9.182;2023-07-30T00:23:24;17.50;73.60
3308;DHT22;1666;48.898;9.182;2023-07-30T00:25:54;17.50;72.20
3308;DHT22;1666;48.898;9.182;2023-07-30T00:28:24;17.50;74.60
3308;DHT22;1666;48.898;9.182;2023-07-30T00:30:54;17.50;73.30
3308;DHT22;1666;48.898;9.182;2023-07-30T00:33:24;17.50;67.70
3308;DHT22;1666;48.898;9.182;2023-07-30T00:35:57;17.50;68.40
3308;DHT22;1666;48.898;9.182;2023-07-30T00:38:27;17.60;71.70
3308;DHT22;1666;48.898;9.182;2023-07-30T00:40:57;17.50;67.50
3308;DHT22;1666;48.898;9.182;2023-07-30T00:43:27;17.50;60.70
3308;DHT22;1666;48.898;9.182;2023-07-30T00:45:56;17.50;60.60
3308;DHT22;1666;48.898;9.182;2023-07-30T00:48:26;17.40;58.90
3308;DHT22;1666;48.898;9.182;2023-07-30T00:50:59;17.50;57.20
3308;DHT22;1666;48.898;9.182;2023-07-30T00:53:30;17.50;54.70
3308;DHT22;1666;48.898;9.182;2023-07-30T00:56:00;17.50;52.80
3308;DHT22;1666;48.898;9.182;2023-07-30T00:58:30;17.50;53.20
3308;DHT22;1666;48.898;9.182;2023-07-30T01:01:01;17.60;55.40
3308;DHT22;1666;48.898;9.182;2023-07-30T01:03:31;17.60;52.40
3308;DHT22;1666;48.898;9.182;2023-07-30T01:06:05;17.60;51.20
3308;DHT22;1666;48.898;9.182;2023-07-30T01:08:35;17.60;47.20
3308;DHT22;1666;48.898;9.182;2023-07-30T01:11:05;17.60;46.20
3308;DHT22;1666;48.898;9.182;2023-07-30T01:13:37;17.60;46.20
3308;DHT22;1666;48.898;9.182;2023-07-30T01:16:08;17.50;48.40
3308;DHT22;1666;48.898;9.182;2023-07-30T01:18:38;17.60;54.80
3308;DHT22;1666;48.898;9.182;2023-07-30T01:21:10;17.70;58.30
3308;DHT22;1666;48.898;9.182;2023-07-30T01:23:40;17.70;55.10
3308;DHT22;1666;48.898;9.182;2023-07-30T01:26:12;17.70;56.00
3308;DHT22;1666;48.898;9.182;2023-07-30T01:28:49;17.70;59.20
3308;DHT22;1666;48.898;9.182;2023-07-30T01:31:20;17.70;61.50
3308;DHT22;1666;48.898;9.182;2023-07-30T01:33:54;17.70;60.60
3308;DHT22;1666;48.898;9.182;2023-07-30T01:36:27;17.60;63.70
3308;DHT22;1666;48.898;9.182;2023-07-30T01:38:59;17.50;65.90
3308;DHT22;1666;48.898;9.182;2023-07-30T01:41:29;17.50;70.80
3308;DHT22;1666;48.898;9.182;2023-07-30T01:43:59;17.50;72.20
3308;DHT22;1666;48.898;9.182;2023-07-30T01:46:29;17.50;76.20
3308;DHT22;1666;48.898;9.182;2023-07-30T01:48:59;17.50;77.50
3308;DHT22;1666;48.898;9.182;2023-07-30T01:51:32;17.50;77.60
3308;DHT22;1666;48.898;9.182;2023-07-30T01:54:02;17.50;80.80
3308;DHT22;1666;48.898;9.182;2023-07-30T01:56:32;17.60;84.10
3308;DHT22;1666;48.898;9.182;2023-07-30T01:59:02;17.50;84.10
3308;DHT22;1666;48.898;9.182;2023-07-30T02:01:32;17.50;83.70
3308;DHT22;1666;48.898;9.182;2023-07-30T02:04:03;17.50;83.90
3308;DHT22;1666;48.898;9.182;2023-07-30T02:06:35;17.50;87.60
3308;DHT22;1666;48.898;9.182;2023-07-30T02:09:05;17.50;88.40
3308;DHT22;1666;48.898;9.182;2023-07-30T02:11:35;17.50;86.50
3308;DHT22;1666;48.898;9.182;2023-07-30T02:14:05;17.50;85.70
3308;DHT22;1666;48.898;9.182;2023-07-30T02:16:35;17.60;86.40
3308;DHT22;1666;48.898;9.182;2023-07-30T02:19:05;17.50;85.50
3308;DHT22;1666;48.898;9.182;2023-07-30T02:21:38;17.60;88.70
3308;DHT22;1666;48.898;9.182;2023-07-30T02:24:10;17.60;89.70
3308;DHT22;1666;48.898;9.182;2023-07-30T02:26:40;17.60;90.30
3308;DHT22;1666;48.898;9.182;2023-07-30T02:29:10;17.60;90.70
3308;DHT22;1666;48.898;9.182;2023-07-30T02:31:39;17.50;87.90
3308;DHT22;1666;48.898;9.182;2023-07-30T02:34:09;17.50;87.90
3308;DHT22;1666;48.898;9.182;2023-07-30T02:36:42;17.50;89.60
3308;DHT22;1666;48.898;9.182;2023-07-30T02:39:12;17.50;89.40
3308;DHT22;1666;48.898;9.182;2023-07-30T02:41:42;17.50;90.00
3308;DHT22;1666;48.898;9.182;2023-07-30T02:44:12;17.50;89.60
3308;DHT22;1666;48.898;9.182;2023-07-30T02:46:42;17.50;89.00
3308;DHT22;1666;48.898;9.182;2023-07-30T02:49:12;17.40;86.90
3308;DHT22;1666;48.898;9.182;2023-07-30T02:51:44;17.40;87.20
3308;DHT22;1666;48.898;9.182;2023-07-30T02:54:15;17.40;86.00
3308;DHT22;1666;48.898;9.182;2023-07-30T02:56:47;17.40;87.40
3308;DHT22;1666;48.898;9.182;2023-07-30T02:59:17;17.40;86.90
3308;DHT22;1666;48.898;9.182;2023-07-30T03:01:47;17.40;86.10
3308;DHT22;1666;48.898;9.182;2023-07-30T03:04:17;17.40;87.90
3308;DHT22;1666;48.898;9.182;2023-07-30T03:06:50;17.30;87.70
3308;DHT22;1666;48.898;9.182;2023-07-30T03:09:20;17.20;88.30
3308;DHT22;1666;48.898;9.182;2023-07-30T03:11:50;17.30;90.90
3308;DHT22;1666;48.898;9.182;2023-07-30T03:14:20;17.40;90.60
3308;DHT22;1666;48.898;9.182;2023-07-30T03:16:50;17.30;90.30
3308;DHT22;1666;48.898;9.182;2023-07-30T03:19:20;17.30;91.50
3308;DHT22;1666;48.898;9.182;2023-07-30T03:21:52;17.30;91.70
3308;DHT22;1666;48.898;9.182;2023-07-30T03:24:22;17.30;91.90
3308;DHT22;1666;48.898;9.182;2023-07-30T03:26:52;17.40;92.40
3308;DHT22;1666;48.898;9.182;2023-07-30T03:29:22;17.40;92.30
3308;DHT22;1666;48.898;9.182;2023-07-30T03:31:52;17.50;92.50
3308;DHT22;1666;48.898;9.182;2023-07-30T03:34:22;17.50;91.70
3308;DHT22;1666;48.898;9.182;2023-07-30T03:36:54;17.50;91.40
3308;DHT22;1666;48.898;9.182;2023-07-30T03:39:27;17.50;90.80
3308;DHT22;1666;48.898;9.182;2023-07-30T03:41:57;17.50;91.40
3308;DHT22;1666;48.898;9.182;2023-07-30T03:44:27;17.60;91.10
3308;DHT22;1666;48.898;9.182;2023-07-30T03:46:57;17.60;89.60
3308;DHT22;1666;48.898;9.182;2023-07-30T03:49:27;17.60;89.30
3308;DHT22;1666;48.898;9.182;2023-07-30T03:51:59;17.60;90.10
3308;DHT22;1666;48.898;9.182;2023-07-30T03:54:29;17.60;89.90
3308;DHT22;1666;48.898;9.182;2023-07-30T03:56:59;17.70;90.60
3308;DHT22;1666;48.898;9.182;2023-07-30T03:59:29;17.70;88.80
3308;DHT22;1666;48.898;9.182;2023-07-30T04:01:59;17.70;87.40
3308;DHT22;1666;48.898;9.182;2023-07-30T04:04:29;17.80;86.00
3308;DHT22;1666;48.898;9.182;2023-07-30T04:07:01;17.80;84.70
3308;DHT22;1666;48.898;9.182;2023-07-30T04:09:31;17.80;84.60
3308;DHT22;1666;48.898;9.182;2023-07-30T04:12:01;17.90;82.30
3308;DHT22;1666;48.898;9.182;2023-07-30T04:14:31;17.80;81.00
3308;DHT22;1666;48.898;9.182;2023-07-30T04:17:01;17.90;82.30
3308;DHT22;1666;48.898;9.182;2023-07-30T04:19:31;18.00;84.40
3308;DHT22;1666;48.898;9.182;2023-07-30T04:22:03;18.00;85.30
3308;DHT22;1666;48.898;9.182;2023-07-30T04:24:33;17.90;85.80
3308;DHT22;1666;48.898;9.182;2023-07-30T04:27:04;17.90;88.00
3308;DHT22;1666;48.898;9.182;2023-07-30T04:29:34;17.90;88.00
3308;DHT22;1666;48.898;9.182;2023-07-30T04:32:05;17.90;90.50
3308;DHT22;1666;48.898;9.182;2023-07-30T04:34:35;17.80;91.00
3308;DHT22;1666;48.898;9.182;2023-07-30T04:37:08;17.80;92.90
3308;DHT22;1666;48.898;9.182;2023-07-30T04:39:38;17.80;94.00
3308;DHT22;1666;48.898;9.182;2023-07-30T04:42:07;17.80;93.30
3308;DHT22;1666;48.898;9.182;2023-07-30T04:44:40;17.80;94.90
3308;DHT22;1666;48.898;9.182;2023-07-30T04:47:10;17.90;95.30
3308;DHT22;1666;48.898;9.182;2023-07-30T04:49:39;17.90;95.90
3308;DHT22;1666;48.898;9.182;2023-07-30T04:52:12;17.90;95.40
3308;DHT22;1666;48.898;9.182;2023-07-30T04:54:42;18.00;94.90
3308;DHT22;1666;48.898;9.182;2023-07-30T04:57:12;18.10;95.60
3308;DHT22;1666;48.898;9.182;2023-07-30T04:59:42;18.10;94.30
3308;DHT22;1666;48.898;9.182;2023-07-30T05:02:12;18.10;94.40
3308;DHT22;1666;48.898;9.182;2023-07-30T05:04:42;18.10;93.00
3308;DHT22;1666;48.898;9.182;2023-07-30T05:07:14;18.10;93.60
3308;DHT22;1666;48.898;9.182;2023-07-30T05:09:44;18.10;94.00
3308;DHT22;1666;48.898;9.182;2023-07-30T05:12:14;18.00;92.00
3308;DHT22;1666;48.898;9.182;2023-07-30T05:14:44;18.00;92.80
3308;DHT22;1666;48.898;9.182;2023-07-30T05:17:14;17.90;93.10
3308;DHT22;1666;48.898;9.182;2023-07-30T05:19:44;17.90;93.80
3308;DHT22;1666;48.898;9.182;2023-07-30T05:22:17;17.80;94.00
3308;DHT22;1666;48.898;9.182;2023-07-30T05:24:47;17.70;91.50
3308;DHT22;1666;48.898;9.182;2023-07-30T05:27:17;17.70;92.20
3308;DHT22;1666;48.898;9.182;2023-07-30T05:29:46;17.70;91.80
3308;DHT22;1666;48.898;9.182;2023-07-30T05:32:17;17.60;91.10
3308;DHT22;1666;48.898;9.182;2023-07-30T05:34:46;17.70;93.10
3308;DHT22;1666;48.898;9.182;2023-07-30T05:37:19;17.60;91.90
3308;DHT22;1666;48.898;9.182;2023-07-30T05:39:50;17.60;90.50
3308;DHT22;1666;48.898;9.182;2023-07-30T05:42:20;17.60;91.90
3308;DHT22;1666;48.898;9.182;2023-07-30T05:44:49;17.70;91.60
3308;DHT22;1666;48.898;9.182;2023-07-30T05:47:19;17.70;92.00
3308;DHT22;1666;48.898;9.182;2023-07-30T05:49:49;17.70;89.90
3308;DHT22;1666;48.898;9.182;2023-07-30T05:52:22;17.70;85.40
3308;DHT22;1666;48.898;9.182;2023-07-30T05:54:52;17.70;83.50
3308;DHT22;1666;48.898;9.182;2023-07-30T05:57:22;17.80;84.00
3308;DHT22;1666;48.898;9.182;2023-07-30T05:59:52;17.80;82.40
3308;DHT22;1666;48.898;9.182;2023-07-30T06:02:22;17.80;81.80
3308;DHT22;1666;48.898;9.182;2023-07-30T06:04:51;17.80;79.70
3308;DHT22;1666;48.898;9.182;2023-07-30T06:07:24;17.70;74.40
3308;DHT22;1666;48.898;9.182;2023-07-30T06:09:54;17.70;73.30
3308;DHT22;1666;48.898;9.182;2023-07-30T06:12:24;17.80;69.20
3308;DHT22;1666;48.898;9.182;2023-07-30T06:14:54;17.80;64.20
3308;DHT22;1666;48.898;9.182;2023-07-30T06:17:24;17.80;58.50
3308;DHT22;1666;48.898;9.182;2023-07-30T06:19:54;18.00;65.10
3308;DHT22;1666;48.898;9.182;2023-07-30T06:22:26;18.00;61.40
3308;DHT22;1666;48.898;9.182;2023-07-30T06:24:56;18.10;59.00
3308;DHT22;1666;48.898;9.182;2023-07-30T06:27:26;18.10;56.90
3308;DHT22;1666;48.898;9.182;2023-07-30T06:29:56;18.20;50.20
3308;DHT22;1666;48.898;9.182;2023-07-30T06:32:26;19.40;18.40
3308;DHT22;1666;48.898;9.182;2023-07-30T06:34:56;19.20;24.10
3308;DHT22;1666;48.898;9.182;2023-07-30T06:37:29;20.20;1.80
3308;DHT22;1666;48.898;9.182;2023-07-30T06:39:59;20.90;1.00
3308;DHT22;1666;48.898;9.182;2023-07-30T06:42:31;21.40;1.00
3308;DHT22;1666;48.898;9.182;2023-07-30T06:45:01;21.20;1.00
3308;DHT22;1666;48.898;9.182;2023-07-30T06:47:31;20.40;1.00
3308;DHT22;1666;48.898;9.182;2023-07-30T06:50:03;20.40;1.00
3308;DHT22;1666;48.898;9.182;2023-07-30T06:52:37;20.10;1.00
3308;DHT22;1666;48.898;9.182;2023-07-30T06:55:08;20.20;1.30
3308;DHT22;1666;48.898;9.182;2023-07-30T06:57:38;20.00;1.00
3308;DHT22;1666;48.898;9.182;2023-07-30T07:00:09;20.20;3.40
3308;DHT22;1666;48.898;9.182;2023-07-30T07:02:39;19.90;1.00
3308;DHT22;1666;48.898;9.182;2023-07-30T07:05:09;19.80;3.90
3308;DHT22;1666;48.898;9.182;2023-07-30T07:07:42;19.80;7.90
3308;DHT22;1666;48.898;9.182;2023-07-30T07:10:12;19.70;6.60
3308;DHT22;1666;48.898;9.182;2023-07-30T07:12:42;19.70;11.90
3308;DHT22;1666;48.898;9.182;2023-07-30T07:15:12;19.70;15.40
3308;DHT22;1666;48.898;9.182;2023-07-30T07:17:42;19.60;12.80
3308;DHT22;1666;48.898;9.182;2023-07-30T07:20:12;19.60;14.50
3308;DHT22;1666;48.898;9.182;2023-07-30T07:22:45;19.60;17.50
3308;DHT22;1666;48.898;9.182;2023-07-30T07:25:15;19.60;25.20
3308;DHT22;1666;48.898;9.182;2023-07-30T07:27:46;19.50;26.50
3308;DHT22;1666;48.898;9.182;2023-07-30T07:30:16;19.60;30.30
3308;DHT22;1666;48.898;9.182;2023-07-30T07:32:46;19.60;32.20
3308;DHT22;1666;48.898;9.182;2023-07-30T07:35:18;19.50;32.30
3308;DHT22;1666;48.898;9.182;2023-07-30T07:37:51;19.40;30.60
3308;DHT22;1666;48.898;9.182;2023-07-30T07:40:21;19.40;31.50
3308;DHT22;1666;48.898;9.182;2023-07-30T07:42:51;19.40;34.80
3308;DHT22;1666;48.898;9.182;2023-07-30T07:45:21;19.30;41.10
3308;DHT22;1666;48.898;9.182;2023-07-30T07:47:51;19.30;37.70
3308;DHT22;1666;48.898;9.182;2023-07-30T07:50:21;19.20;40.00
3308;DHT22;1666;48.898;9.182;2023-07-30T07:52:53;19.00;45.20
3308;DHT22;1666;48.898;9.182;2023-07-30T07:55:23;18.80;53.10
3308;DHT22;1666;48.898;9.182;2023-07-30T07:57:53;18.70;53.50
3308;DHT22;1666;48.898;9.182;2023-07-30T08:00:23;18.40;55.40
3308;DHT22;1666;48.898;9.182;2023-07-30T08:02:53;18.40;58.60
3308;DHT22;1666;48.898;9.182;2023-07-30T08:05:23;18.40;60.70
3308;DHT22;1666;48.898;9.182;2023-07-30T08:07:56;18.50;57.20
3308;DHT22;1666;48.898;9.182;2023-07-30T08:10:26;18.60;57.40
3308;DHT22;1666;48.898;9.182;2023-07-30T08:12:56;18.80;44.90
3308;DHT22;1666;48.898;9.182;2023-07-30T08:15:26;19.00;42.90
3308;DHT22;1666;48.898;9.182;2023-07-30T08:17:56;19.00;34.90
3308;DHT22;1666;48.898;9.182;2023-07-30T08:20:26;19.00;32.90
3308;DHT22;1666;48.898;9.182;2023-07-30T08:22:58;19.20;26.00
3308;DHT22;1666;48.898;9.182;2023-07-30T08:25:28;19.30;27.10
3308;DHT22;1666;48.898;9.182;2023-07-30T08:27:58;19.40;21.50
3308;DHT22;1666;48.898;9.182;2023-07-30T08:30:28;19.50;21.80
3308;DHT22;1666;48.898;9.182;2023-07-30T08:32:58;19.80;20.70
3308;DHT22;1666;48.898;9.182;2023-07-30T08:35:28;19.90;5.10
3308;DHT22;1666;48.898;9.182;2023-07-30T08:38:01;20.00;1.00
3308;DHT22;1666;48.898;9.182;2023-07-30T08:40:31;20.00;1.00
3308;DHT22;1666;48.898;9.182;2023-07-30T08:43:02;19.80;1.00
3308;DHT22;1666;48.898;9.182;2023-07-30T08:45:33;20.00;1.00
3308;DHT22;1666;48.898;9.182;2023-07-30T08:48:04;19.90;1.00
3308;DHT22;1666;48.898;9.182;2023-07-30T08:50:34;19.90;1.00
3308;DHT22;1666;48.898;9.182;2023-07-30T08:53:07;20.00;1.00
3308;DHT22;1666;48.898;9.182;2023-07-30T08:55:39;20.10;1.00
3308;DHT22;1666;48.898;9.182;2023-07-30T08:58:10;20.10;1.00
3308;DHT22;1666;48.898;9.182;2023-07-30T09:00:41;20.20;1.00
3308;DHT22;1666;48.898;9.182;2023-07-30T09:03:14;20.40;1.00
3308;DHT22;1666;48.898;9.182;2023-07-30T09:05:45;20.50;1.00
3308;DHT22;1666;48.898;9.182;2023-07-30T09:08:18;20.80;1.00
3308;DHT22;1666;48.898;9.182;2023-07-30T09:10:49;20.80;1.00
3308;DHT22;1666;48.898;9.182;2023-07-30T09:13:23;20.90;1.00
3308;DHT22;1666;48.898;9.182;2023-07-30T09:15:53;21.10;1.00
3308;DHT22;1666;48.898;9.182;2023-07-30T09:18:23;21.20;1.00
3308;DHT22;1666;48.898;9.182;2023-07-30T09:20:53;21.00;1.00
3308;DHT22;1666;48.898;9.182;2023-07-30T09:23:25;20.90;1.00
3308;DHT22;1666;48.898;9.182;2023-07-30T09:25:57;21.30;1.00
3308;DHT22;1666;48.898;9.182;2023-07-30T09:28:30;21.20;1.00
3308;DHT22;1666;48.898;9.182;2023-07-30T09:31:01;21.30;1.00
3308;DHT22;1666;48.898;9.182;2023-07-30T09:33:48;21.10;1.00
3308;DHT22;1666;48.898;9.182;2023-07-30T09:36:20;21.00;1.00
3308;DHT22;1666;48.898;9.182;2023-07-30T09:38:52;20.70;1.00
3308;DHT22;1666;48.898;9.182;2023-07-30T09:41:22;20.90;1.00
3308;DHT22;1666;48.898;9.182;2023-07-30T09:43:58;21.00;1.00
3308;DHT22;1666;48.898;9.182;2023-07-30T09:46:29;21.10;1.00
3308;DHT22;1666;48.898;9.182;2023-07-30T09:48:59;21.20;1.00
3308;DHT22;1666;48.898;9.182;2023-07-30T09:51:32;21.60;1.00
3308;DHT22;1666;48.898;9.182;2023-07-30T09:54:06;21.10;1.00
3308;DHT22;1666;48.898;9.182;2023-07-30T09:56:37;21.00;1.00
3308;DHT22;1666;48.898;9.182;2023-07-30T09:59:08;20.70;1.00
3308;DHT22;1666;48.898;9.182;2023-07-30T10:01:44;21.30;1.00
3308;DHT22;1666;48.898;9.182;2023-07-30T10:04:19;20.80;1.00
3308;DHT22;1666;48.898;9.182;2023-07-30T10:06:54;21.00;1.00
3308;DHT22;1666;48.898;9.182;2023-07-30T10:09:30;21.30;1.00
3308;DHT22;1666;48.898;9.182;2023-07-30T10:12:02;21.20;1.00
3308;DHT22;1666;48.898;9.182;2023-07-30T10:14:32;21.20;1.00
3308;DHT22;1666;48.898;9.182;2023-07-30T10:17:03;21.10;1.00
3308;DHT22;1666;48.898;9.182;2023-07-30T10:19:33;21.10;1.00
3308;DHT22;1666;48.898;9.182;2023-07-30T10:22:21;21.70;1.00
3308;DHT22;1666;48.898;9.182;2023-07-30T10:25:02;21.60;1.00
3308;DHT22;1666;48.898;9.182;2023-07-30T10:27:37;21.50;1.00
3308;DHT22;1666;48.898;9.182;2023-07-30T10:30:11;22.10;1.00
3308;DHT22;1666;48.898;9.182;2023-07-30T10:32:53;21.70;1.00
3308;DHT22;1666;48.898;9.182;2023-07-30T10:35:39;22.00;1.00
3308;DHT22;1666;48.898;9.182;2023-07-30T10:38:15;22.40;1.00
3308;DHT22;1666;48.898;9.182;2023-07-30T10:41:04;22.10;1.00
3308;DHT22;1666;48.898;9.182;2023-07-30T10:43:36;22.30;1.00
3308;DHT22;1666;48.898;9.182;2023-07-30T10:46:07;21.80;1.00
3308;DHT22;1666;48.898;9.182;2023-07-30T10:48:39;21.90;1.00
3308;DHT22;1666;48.898;9.182;2023-07-30T10:51:11;22.30;1.00
3308;DHT22;1666;48.898;9.182;2023-07-30T10:53:42;22.10;1.00
3308;DHT22;1666;48.898;9.182;2023-07-30T10:56:16;22.80;1.00
3308;DHT22;1666;48.898;9.182;2023-07-30T10:58:49;22.80;1.00
3308;DHT22;1666;48.898;9.182;2023-07-30T11:01:20;22.80;1.00
3308;DHT22;1666;48.898;9.182;2023-07-30T11:03:53;21.80;1.00
3308;DHT22;1666;48.898;9.182;2023-07-30T11:06:24;21.50;1.00
3308;DHT22;1666;48.898;9.182;2023-07-30T11:08:54;21.20;1.00
3308;DHT22;1666;48.898;9.182;2023-07-30T11:11:26;21.10;1.00
3308;DHT22;1666;48.898;9.182;2023-07-30T11:13:58;21.70;1.00
3308;DHT22;1666;48.898;9.182;2023-07-30T11:16:28;20.90;1.00
3308;DHT22;1666;48.898;9.182;2023-07-30T11:19:08;20.70;1.00
3308;DHT22;1666;48.898;9.182;2023-07-30T11:21:44;20.50;1.00
3308;DHT22;1666;48.898;9.182;2023-07-30T11:24:17;20.20;1.00
3308;DHT22;1666;48.898;9.182;2023-07-30T11:26:59;20.20;1.00
3308;DHT22;1666;48.898;9.182;2023-07-30T11:29:30;19.70;1.00
3308;DHT22;1666;48.898;9.182;2023-07-30T11:32:00;19.50;1.00
3308;DHT22;1666;48.898;9.182;2023-07-30T11:34:31;20.00;1.00
3308;DHT22;1666;48.898;9.182;2023-07-30T11:37:06;20.20;1.00
3308;DHT22;1666;48.898;9.182;2023-07-30T11:39:36;20.50;1.00
3308;DHT22;1666;48.898;9.182;2023-07-30T11:42:11;20.30;1.00
3308;DHT22;1666;48.898;9.182;2023-07-30T11:44:41;20.70;1.00
3308;DHT22;1666;48.898;9.182;2023-07-30T11:47:20;20.70;1.00
3308;DHT22;1666;48.898;9.182;2023-07-30T11:49:57;21.30;1.00
3308;DHT22;1666;48.898;9.182;2023-07-30T11:52:27;21.60;1.00
3308;DHT22;1666;48.898;9.182;2023-07-30T11:55:01;21.60;1.00
3308;DHT22;1666;48.898;9.182;2023-07-30T11:57:36;21.70;1.00
3308;DHT22;1666;48.898;9.182;2023-07-30T12:00:07;21.70;1.00
3308;DHT22;1666;48.898;9.182;2023-07-30T12:02:38;21.70;1.00
3308;DHT22;1666;48.898;9.182;2023-07-30T12:05:10;21.80;1.00
3308;DHT22;1666;48.898;9.182;2023-07-30T12:07:41;21.90;1.00
3308;DHT22;1666;48.898;9.182;2023-07-30T12:10:13;22.30;1.00
3308;DHT22;1666;48.898;9.182;2023-07-30T12:12:51;21.80;1.00
3308;DHT22;1666;48.898;9.182;2023-07-30T12:15:21;21.60;1.00
3308;DHT22;1666;48.898;9.182;2023-07-30T12:17:51;22.70;1.00
3308;DHT22;1666;48.898;9.182;2023-07-30T12:20:21;22.60;1.00
3308;DHT22;1666;48.898;9.182;2023-07-30T12:22:51;22.40;1.00
3308;DHT22;1666;48.898;9.182;2023-07-30T12:25:21;22.30;1.00
3308;DHT22;1666;48.898;9.182;2023-07-30T12:27:54;21.70;1.00
3308;DHT22;1666;48.898;9.182;2023-07-30T12:30:24;21.70;1.00
3308;DHT22;1666;48.898;9.182;2023-07-30T12:32:54;21.50;1.00
3308;DHT22;1666;48.898;9.182;2023-07-30T12:35:24;21.60;1.00
3308;DHT22;1666;48.898;9.182;2023-07-30T12:37:54;21.90;1.00
3308;DHT22;1666;48.898;9.182;2023-07-30T12:40:26;22.20;1.00
3308;DHT22;1666;48.898;9.182;2023-07-30T12:43:01;22.80;1.00
3308;DHT22;1666;48.898;9.182;2023-07-30T12:45:31;22.70;1.00
3308;DHT22;1666;48.898;9.182;2023-07-30T12:48:01;22.80;1.00
3308;DHT22;1666;48.898;9.182;2023-07-30T12:50:31;22.50;1.00
3308;DHT22;1666;48.898;9.182;2023-07-30T12:53:01;21.90;1.00
3308;DHT22;1666;48.898;9.182;2023-07-30T12:55:31;22.80;1.00
3308;DHT22;1666;48.898;9.182;2023-07-30T12:58:04;23.10;1.00
3308;DHT22;1666;48.898;9.182;2023-07-30T13:00:34;22.70;1.00
3308;DHT22;1666;48.898;9.182;2023-07-30T13:03:04;22.70;1.00
3308;DHT22;1666;48.898;9.182;2023-07-30T13:05:34;22.90;1.00
3308;DHT22;1666;48.898;9.182;2023-07-30T13:08:04;21.80;1.00
3308;DHT22;1666;48.898;9.182;2023-07-30T13:10:34;21.90;1.00
3308;DHT22;1666;48.898;9.182;2023-07-30T13:13:06;21.70;1.00
3308;DHT22;1666;48.898;9.182;2023-07-30T13:15:36;21.80;1.00
3308;DHT22;1666;48.898;9.182;2023-07-30T13:18:06;22.40;1.00
3308;DHT22;1666;48.898;9.182;2023-07-30T13:20:36;22.10;1.00
3308;DHT22;1666;48.898;9.182;2023-07-30T13:23:06;22.70;1.00
3308;DHT22;1666;48.898;9.182;2023-07-30T13:25:37;23.10;1.00
3308;DHT22;1666;48.898;9.182;2023-07-30T13:28:10;23.10;1.00
3308;DHT22;1666;48.898;9.182;2023-07-30T13:30:40;22.70;1.00
3308;DHT22;1666;48.898;9.182;2023-07-30T13:33:10;22.50;1.00
3308;DHT22;1666;48.898;9.182;2023-07-30T13:35:40;23.00;1.00
3308;DHT22;1666;48.898;9.182;2023-07-30T13:38:10;22.60;1.00
3308;DHT22;1666;48.898;9.182;2023-07-30T13:40:40;23.10;1.00
3308;DHT22;1666;48.898;9.182;2023-07-30T13:43:12;23.00;1.00
3308;DHT22;1666;48.898;9.182;2023-07-30T13:45:43;23.00;1.00
3308;DHT22;1666;48.898;9.182;2023-07-30T13:48:12;23.30;1.00
3308;DHT22;1666;48.898;9.182;2023-07-30T13:50:42;23.30;1.00
3308;DHT22;1666;48.898;9.182;2023-07-30T13:53:12;22.90;1.00
3308;DHT22;1666;48.898;9.182;2023-07-30T13:55:42;22.80;1.00
3308;DHT22;1666;48.898;9.182;2023-07-30T13:58:15;22.50;1.00
3308;DHT22;1666;48.898;9.182;2023-07-30T14:00:45;22.20;1.00
3308;DHT22;1666;48.898;9.182;2023-07-30T14:03:15;22.50;1.00
3308;DHT22;1666;48.898;9.182;2023-07-30T14:05:45;22.10;1.00
3308;DHT22;1666;48.898;9.182;2023-07-30T14:08:15;22.20;1.00
3308;DHT22;1666;48.898;9.182;2023-07-30T14:10:45;22.10;1.00
3308;DHT22;1666;48.898;9.182;2023-07-30T14:13:18;22.20;1.00
3308;DHT22;1666;48.898;9.182;2023-07-30T14:15:47;22.50;1.00
3308;DHT22;1666;48.898;9.182;2023-07-30T14:18:17;22.60;1.00
3308;DHT22;1666;48.898;9.182;2023-07-30T14:20:47;22.20;1.00
3308;DHT22;1666;48.898;9.182;2023-07-30T14:23:18;22.60;1.00
3308;DHT22;1666;48.898;9.182;2023-07-30T14:25:48;23.10;1.00
3308;DHT22;1666;48.898;9.182;2023-07-30T14:28:21;23.20;1.00
3308;DHT22;1666;48.898;9.182;2023-07-30T14:30:51;22.80;1.00
3308;DHT22;1666;48.898;9.182;2023-07-30T14:33:21;23.30;1.00
3308;DHT22;1666;48.898;9.182;2023-07-30T14:35:51;23.60;1.00
3308;DHT22;1666;48.898;9.182;2023-07-30T14:38:21;22.70;1.00
3308;DHT22;1666;48.898;9.182;2023-07-30T14:40:51;22.30;1.00
3308;DHT22;1666;48.898;9.182;2023-07-30T14:43:24;22.70;1.00
3308;DHT22;1666;48.898;9.182;2023-07-30T14:45:54;23.00;1.00
3308;DHT22;1666;48.898;9.182;2023-07-30T14:48:24;22.60;1.00
3308;DHT22;1666;48.898;9.182;2023-07-30T14:50:55;22.90;1.00
3308;DHT22;1666;48.898;9.182;2023-07-30T14:53:25;22.30;1.00
3308;DHT22;1666;48.898;9.182;2023-07-30T14:55:55;22.40;1.00
3308;DHT22;1666;48.898;9.182;2023-07-30T14:58:30;22.60;1.00
3308;DHT22;1666;48.898;9.182;2023-07-30T15:01:01;22.70;1.00
3308;DHT22;1666;48.898;9.182;2023-07-30T15:03:31;23.30;1.00
3308;DHT22;1666;48.898;9.182;2023-07-30T15:06:01;23.00;1.00
3308;DHT22;1666;48.898;9.182;2023-07-30T15:08:32;23.00;1.00
3308;DHT22;1666;48.898;9.182;2023-07-30T15:11:02;22.40;1.00
3308;DHT22;1666;48.898;9.182;2023-07-30T15:13:34;22.00;1.00
3308;DHT22;1666;48.898;9.182;2023-07-30T15:16:04;22.30;1.00
3308;DHT22;1666;48.898;9.182;2023-07-30T15:18:34;22.40;1.00
3308;DHT22;1666;48.898;9.182;2023-07-30T15:21:04;22.30;1.00
3308;DHT22;1666;48.898;9.182;2023-07-30T15:23:34;22.80;1.00
3308;DHT22;1666;48.898;9.182;2023-07-30T15:26:04;22.50;1.00
3308;DHT22;1666;48.898;9.182;2023-07-30T15:28:36;23.00;1.00
3308;DHT22;1666;48.898;9.182;2023-07-30T15:31:06;22.20;1.00
3308;DHT22;1666;48.898;9.182;2023-07-30T15:33:36;21.90;1.00
3308;DHT22;1666;48.898;9.182;2023-07-30T15:36:06;21.70;1.00
3308;DHT22;1666;48.898;9.182;2023-07-30T15:38:36;22.00;1.00
3308;DHT22;1666;48.898;9.182;2023-07-30T15:41:06;22.30;1.00
3308;DHT22;1666;48.898;9.182;2023-07-30T15:43:39;22.20;1.00
3308;DHT22;1666;48.898;9.182;2023-07-30T15:46:09;21.70;1.00
3308;DHT22;1666;48.898;9.182;2023-07-30T15:48:40;22.00;1.00
3308;DHT22;1666;48.898;9.182;2023-07-30T15:51:10;21.60;1.00
3308;DHT22;1666;48.898;9.182;2023-07-30T15:53:40;21.80;1.00
3308;DHT22;1666;48.898;9.182;2023-07-30T15:56:10;22.10;1.00
3308;DHT22;1666;48.898;9.182;2023-07-30T15:58:43;22.50;1.00
3308;DHT22;1666;48.898;9.182;2023-07-30T16:01:13;22.00;1.00
3308;DHT22;1666;48.898;9.182;2023-07-30T16:03:43;22.10;1.00
3308;DHT22;1666;48.898;9.182;2023-07-30T16:06:13;22.30;1.00
3308;DHT22;1666;48.898;9.182;2023-07-30T16:08:43;22.40;1.00
3308;DHT22;1666;48.898;9.182;2023-07-30T16:11:13;22.50;1.00
3308;DHT22;1666;48.898;9.182;2023-07-30T16:13:45;22.30;1.00
3308;DHT22;1666;48.898;9.182;2023-07-30T16:16:16;21.80;1.00
3308;DHT22;1666;48.898;9.182;2023-07-30T16:18:47;22.10;1.00
3308;DHT22;1666;48.898;9.182;2023-07-30T16:21:17;22.20;1.00
3308;DHT22;1666;48.898;9.182;2023-07-30T16:23:47;22.10;1.00
3308;DHT22;1666;48.898;9.182;2023-07-30T16:26:17;22.20;1.00
3308;DHT22;1666;48.898;9.182;2023-07-30T16:28:49;22.20;1.00
3308;DHT22;1666;48.898;9.182;2023-07-30T16:31:19;22.20;1.00
3308;DHT22;1666;48.898;9.182;2023-07-30T16:33:49;22.20;1.00